createdAt,value
2023-03-30T00:01:15.384Z,11.17
2023-03-30T00:03:44.248Z,7.53
2023-03-30T00:06:14.898Z,11.40
2023-03-30T00:08:41.974Z,9.13
2023-03-30T00:11:17.104Z,10.80
2023-03-30T00:13:45.005Z,10.10
2023-03-30T00:16:14.476Z,8.93
2023-03-30T00:18:41.891Z,9.37
2023-03-30T00:21:11.207Z,13.90
2023-03-30T00:23:40.058Z,8.43
2023-03-30T00:26:07.798Z,13.37
2023-03-30T00:28:35.118Z,8.77
2023-03-30T00:31:02.915Z,12.10
2023-03-30T00:33:44.641Z,12.67
2023-03-30T00:36:13.878Z,12.90
2023-03-30T00:38:41.101Z,11.23
2023-03-30T00:41:09.360Z,10.17
2023-03-30T00:44:02.331Z,13.50
2023-03-30T00:46:31.735Z,10.40
2023-03-30T00:49:05.246Z,7.20
2023-03-30T00:51:38.465Z,8.00
2023-03-30T00:54:16.698Z,12.10
2023-03-30T00:56:44.096Z,11.17
2023-03-30T00:59:11.500Z,11.10
2023-03-30T01:01:41.415Z,9.73
2023-03-30T01:04:11.216Z,9.73
2023-03-30T01:06:40.901Z,9.43
2023-03-30T01:09:08.575Z,10.73
2023-03-30T01:11:35.788Z,9.10
2023-03-30T01:14:10.862Z,9.23
2023-03-30T01:17:01.554Z,15.83
2023-03-30T01:19:53.059Z,12.73
2023-03-30T01:23:04.333Z,9.67
2023-03-30T01:26:06.983Z,10.30
2023-03-30T01:28:50.729Z,13.63
2023-03-30T01:31:48.900Z,14.77
2023-03-30T01:35:20.831Z,15.27
2023-03-30T01:38:37.342Z,10.87
2023-03-30T01:41:25.919Z,14.70
2023-03-30T01:44:09.046Z,11.30
2023-03-30T01:46:55.564Z,12.93
2023-03-30T01:49:38.004Z,14.30
2023-03-30T01:52:38.606Z,11.17
2023-03-30T01:55:20.641Z,9.43
2023-03-30T01:57:58.850Z,10.77
2023-03-30T02:00:27.688Z,15.37
2023-03-30T02:03:06.739Z,9.90
2023-03-30T02:05:36.184Z,14.03
2023-03-30T02:08:16.379Z,11.30
2023-03-30T02:10:45.889Z,10.53
2023-03-30T02:13:14.323Z,13.70
2023-03-30T02:15:50.092Z,13.40
2023-03-30T02:18:19.976Z,13.43
2023-03-30T02:20:49.462Z,12.97
2023-03-30T02:23:20.996Z,13.70
2023-03-30T02:25:48.455Z,13.33
2023-03-30T02:28:18.500Z,14.30
2023-03-30T02:30:47.310Z,13.33
2023-03-30T02:33:50.867Z,15.33
2023-03-30T02:36:38.691Z,15.57
2023-03-30T02:39:50.595Z,14.73
2023-03-30T02:42:55.424Z,15.57
2023-03-30T02:46:02.567Z,16.93
2023-03-30T02:48:58.696Z,19.77
2023-03-30T02:51:29.913Z,19.70
2023-03-30T02:54:43.886Z,16.67
2023-03-30T02:57:55.009Z,18.57
2023-03-30T03:01:14.718Z,21.03
2023-03-30T03:03:54.029Z,17.60
2023-03-30T03:06:23.930Z,19.93
2023-03-30T03:08:56.258Z,23.73
2023-03-30T03:11:27.219Z,18.00
2023-03-30T03:13:55.716Z,26.57
2023-03-30T03:16:24.146Z,18.30
2023-03-30T03:19:08.916Z,19.93
2023-03-30T03:21:37.065Z,26.63
2023-03-30T03:24:06.578Z,23.70
2023-03-30T03:26:53.086Z,26.70
2023-03-30T03:29:23.115Z,20.30
2023-03-30T03:31:50.355Z,23.40
2023-03-30T03:34:20.522Z,21.43
2023-03-30T03:36:57.300Z,24.17
2023-03-30T03:39:27.166Z,23.67
2023-03-30T03:42:01.591Z,23.60
2023-03-30T03:44:28.760Z,23.43
2023-03-30T03:46:56.283Z,25.27
2023-03-30T03:49:24.058Z,25.53
2023-03-30T03:51:51.121Z,27.07
2023-03-30T03:54:18.369Z,26.47
2023-03-30T03:56:48.195Z,24.37
2023-03-30T03:59:15.633Z,24.27
2023-03-30T04:01:42.789Z,21.50
2023-03-30T04:04:09.922Z,26.13
2023-03-30T04:06:37.434Z,29.90
2023-03-30T04:09:04.651Z,24.70
2023-03-30T04:12:07.030Z,21.40
2023-03-30T04:14:52.711Z,23.83
2023-03-30T04:17:50.050Z,24.17
2023-03-30T04:20:30.314Z,25.60
2023-03-30T04:23:09.923Z,22.27
2023-03-30T04:25:55.695Z,24.07
2023-03-30T04:28:43.412Z,27.83
2023-03-30T04:31:35.958Z,20.47
2023-03-30T04:34:35.310Z,26.90
2023-03-30T04:37:30.371Z,23.20
2023-03-30T04:40:16.398Z,21.10
2023-03-30T04:42:52.840Z,24.77
2023-03-30T04:45:58.343Z,23.83
2023-03-30T04:48:44.179Z,23.10
2023-03-30T04:51:40.952Z,24.30
2023-03-30T04:54:29.235Z,31.60
2023-03-30T04:57:17.581Z,24.73
2023-03-30T04:59:58.277Z,22.90
2023-03-30T05:02:54.412Z,28.50
2023-03-30T05:05:51.316Z,24.63
2023-03-30T05:08:47.657Z,24.17
2023-03-30T05:11:47.142Z,29.73
2023-03-30T05:14:23.164Z,25.13
2023-03-30T05:17:01.945Z,20.70
2023-03-30T05:19:38.235Z,24.30
2023-03-30T05:22:24.343Z,20.33
2023-03-30T05:25:00.514Z,19.87
2023-03-30T05:28:00.125Z,17.83
2023-03-30T05:30:41.761Z,24.70
2023-03-30T05:33:11.706Z,21.77
2023-03-30T05:35:59.220Z,24.93
2023-03-30T05:38:57.360Z,19.20
2023-03-30T05:41:49.407Z,22.17
2023-03-30T05:44:26.769Z,18.20
2023-03-30T05:47:27.872Z,27.00
2023-03-30T05:50:09.359Z,19.00
2023-03-30T05:52:47.987Z,20.63
2023-03-30T05:55:18.151Z,20.10
2023-03-30T05:58:04.116Z,23.97
2023-03-30T06:00:49.799Z,22.53
2023-03-30T06:03:29.532Z,24.30
2023-03-30T06:05:57.061Z,18.10
2023-03-30T06:08:24.406Z,17.73
2023-03-30T06:10:57.540Z,20.03
2023-03-30T06:13:27.949Z,21.17
2023-03-30T06:15:56.165Z,18.60
2023-03-30T06:18:26.572Z,20.87
2023-03-30T06:21:07.783Z,27.00
2023-03-30T06:23:49.261Z,22.47
2023-03-30T06:26:21.648Z,19.50
2023-03-30T06:28:49.392Z,17.07
2023-03-30T06:31:16.643Z,23.03
2023-03-30T06:33:45.144Z,27.73
2023-03-30T06:36:14.676Z,24.50
2023-03-30T06:38:44.715Z,16.97
2023-03-30T06:41:12.902Z,18.90
2023-03-30T06:43:43.411Z,18.13
2023-03-30T06:46:15.634Z,16.87
2023-03-30T06:48:48.489Z,25.50
2023-03-30T06:51:38.006Z,20.80
2023-03-30T06:54:07.064Z,22.73
2023-03-30T06:56:34.726Z,15.60
2023-03-30T06:59:08.972Z,17.23
2023-03-30T07:01:56.385Z,18.67
2023-03-30T07:04:38.117Z,19.60
2023-03-30T07:07:19.908Z,15.73
2023-03-30T07:09:47.861Z,15.10
2023-03-30T07:12:15.075Z,15.63
2023-03-30T07:14:42.809Z,18.03
2023-03-30T07:17:10.261Z,7.60
2023-03-30T07:19:37.613Z,6.57
2023-03-30T07:22:04.975Z,6.10
2023-03-30T07:24:33.763Z,7.40
2023-03-30T07:27:01.564Z,5.20
2023-03-30T07:29:29.398Z,4.73
2023-03-30T07:31:57.262Z,4.83
2023-03-30T07:34:24.826Z,9.37
2023-03-30T07:36:55.454Z,9.93
2023-03-30T07:39:26.779Z,6.80
2023-03-30T07:41:54.214Z,9.40
2023-03-30T07:44:22.859Z,6.77
2023-03-30T07:46:50.186Z,7.33
2023-03-30T07:49:23.304Z,3.53
2023-03-30T07:51:51.891Z,6.50
2023-03-30T07:54:26.413Z,5.83
2023-03-30T07:57:06.780Z,4.70
2023-03-30T07:59:34.584Z,5.83
2023-03-30T08:02:14.977Z,9.77
2023-03-30T08:04:54.114Z,12.87
2023-03-30T08:07:32.415Z,9.47
2023-03-30T08:10:09.341Z,4.73
2023-03-30T08:12:37.823Z,8.13
2023-03-30T08:15:05.844Z,6.83
2023-03-30T08:17:33.479Z,5.20
2023-03-30T08:20:02.066Z,5.20
2023-03-30T08:22:29.430Z,6.00
2023-03-30T08:24:57.178Z,8.73
2023-03-30T08:27:24.550Z,6.27
2023-03-30T08:29:54.452Z,10.00
2023-03-30T08:32:24.608Z,8.57
2023-03-30T08:34:53.966Z,9.10
2023-03-30T08:37:21.460Z,7.67
2023-03-30T08:39:48.896Z,13.77
2023-03-30T08:42:43.687Z,13.23
2023-03-30T08:45:12.970Z,11.90
2023-03-30T08:47:46.139Z,12.30
2023-03-30T08:50:36.130Z,18.13
2023-03-30T08:53:08.331Z,15.93
2023-03-30T08:55:44.900Z,20.30
2023-03-30T08:58:48.438Z,15.70
2023-03-30T09:01:58.924Z,15.10
2023-03-30T09:05:13.452Z,17.50
2023-03-30T09:08:22.870Z,20.67
2023-03-30T09:11:02.535Z,13.10
2023-03-30T09:13:35.081Z,13.63
2023-03-30T09:16:30.034Z,16.50
2023-03-30T09:18:59.392Z,13.60
2023-03-30T09:21:31.542Z,21.43
2023-03-30T09:24:01.484Z,18.07
2023-03-30T09:26:44.080Z,14.90
2023-03-30T09:29:14.000Z,18.97
2023-03-30T09:31:52.337Z,8.20
2023-03-30T09:34:39.193Z,10.80
2023-03-30T09:37:22.468Z,9.70
2023-03-30T09:39:50.855Z,9.93
2023-03-30T09:42:48.310Z,9.47
2023-03-30T09:45:23.274Z,3.23
2023-03-30T09:47:50.866Z,6.70
2023-03-30T09:50:27.703Z,6.47
2023-03-30T09:53:07.561Z,12.23
2023-03-30T09:55:36.720Z,6.43
2023-03-30T09:58:34.618Z,7.67
2023-03-30T10:01:18.484Z,6.93
2023-03-30T10:04:06.780Z,13.30
2023-03-30T10:06:40.083Z,8.67
2023-03-30T10:09:12.682Z,7.57
2023-03-30T10:11:54.108Z,9.40
2023-03-30T10:14:36.785Z,6.33
2023-03-30T10:17:05.492Z,8.30
2023-03-30T10:19:38.392Z,13.83
2023-03-30T10:22:17.877Z,5.97
2023-03-30T10:24:57.088Z,6.53
2023-03-30T10:27:34.334Z,7.40
2023-03-30T10:30:11.465Z,3.57
2023-03-30T10:32:38.642Z,4.73
2023-03-30T10:35:10.573Z,4.27
2023-03-30T10:37:46.461Z,6.27
2023-03-30T10:40:22.114Z,5.47
2023-03-30T10:42:55.997Z,4.37
2023-03-30T10:45:35.092Z,4.40
2023-03-30T10:48:31.255Z,7.03
2023-03-30T10:51:11.197Z,4.17
2023-03-30T10:53:58.530Z,3.53
2023-03-30T10:56:52.262Z,5.90
2023-03-30T10:59:54.832Z,2.93
2023-03-30T11:03:02.327Z,7.90
2023-03-30T11:05:33.584Z,7.03
2023-03-30T11:08:29.818Z,6.93
2023-03-30T11:10:59.686Z,2.83
2023-03-30T11:13:32.592Z,4.07
2023-03-30T11:16:31.460Z,2.00
2023-03-30T11:19:24.628Z,4.80
2023-03-30T11:22:40.033Z,1.80
2023-03-30T11:25:22.448Z,5.70
2023-03-30T11:28:23.369Z,3.73
2023-03-30T11:30:55.412Z,6.40
2023-03-30T11:33:37.100Z,2.93
2023-03-30T11:36:18.849Z,1.33
2023-03-30T11:39:18.444Z,1.53
2023-03-30T11:42:17.898Z,1.37
2023-03-30T11:44:45.131Z,2.97
2023-03-30T11:47:50.470Z,6.50
2023-03-30T11:51:08.141Z,2.30
2023-03-30T11:53:41.167Z,5.27
2023-03-30T11:56:19.300Z,1.77
2023-03-30T11:59:09.502Z,2.60
2023-03-30T12:01:57.771Z,4.30
2023-03-30T12:04:43.555Z,1.43
2023-03-30T12:07:53.645Z,3.23
2023-03-30T12:10:28.590Z,3.47
2023-03-30T12:12:56.495Z,2.30
2023-03-30T12:15:49.116Z,1.77
2023-03-30T12:18:41.188Z,2.43
2023-03-30T12:21:11.063Z,2.70
2023-03-30T12:24:04.866Z,2.60
2023-03-30T12:26:34.370Z,4.63
2023-03-30T12:29:44.386Z,2.40
2023-03-30T12:32:02.966Z,4.27
2023-03-30T12:34:37.682Z,9.47
2023-03-30T12:37:35.708Z,4.37
2023-03-30T12:40:20.797Z,4.73
2023-03-30T12:43:08.752Z,2.57
2023-03-30T12:45:49.873Z,3.43
2023-03-30T12:48:50.468Z,2.50
2023-03-30T12:51:32.608Z,6.17
2023-03-30T12:54:26.740Z,2.40
2023-03-30T12:57:00.306Z,4.47
2023-03-30T13:00:11.899Z,8.40
2023-03-30T13:03:36.789Z,7.03
2023-03-30T13:06:12.157Z,3.33
2023-03-30T13:08:42.107Z,4.93
2023-03-30T13:11:22.111Z,5.13
2023-03-30T13:14:01.871Z,3.07
2023-03-30T13:16:51.278Z,4.07
2023-03-30T13:19:33.564Z,3.70
2023-03-30T13:22:13.480Z,4.13
2023-03-30T13:25:03.982Z,4.93
2023-03-30T13:27:37.798Z,3.53
2023-03-30T13:30:15.530Z,16.23
2023-03-30T13:33:23.702Z,3.57
2023-03-30T13:36:09.747Z,10.90
2023-03-30T13:38:56.419Z,6.10
2023-03-30T13:41:44.763Z,3.30
2023-03-30T13:44:46.966Z,4.20
2023-03-30T13:47:57.451Z,3.60
2023-03-30T13:50:31.499Z,3.30
2023-03-30T13:53:04.418Z,4.90
2023-03-30T13:55:34.745Z,4.80
2023-03-30T13:58:12.005Z,3.20
2023-03-30T14:00:48.661Z,8.13
2023-03-30T14:03:46.412Z,4.60
2023-03-30T14:06:14.636Z,3.10
2023-03-30T14:09:05.556Z,8.57
2023-03-30T14:11:48.216Z,7.10
2023-03-30T14:14:29.884Z,7.00
2023-03-30T14:16:59.537Z,5.53
2023-03-30T14:19:35.474Z,6.17
2023-03-30T14:22:11.433Z,2.30
2023-03-30T14:24:38.704Z,4.07
2023-03-30T14:27:14.567Z,3.90
2023-03-30T14:29:51.368Z,2.50
2023-03-30T14:32:23.361Z,4.57
2023-03-30T14:34:52.859Z,7.10
2023-03-30T14:37:23.118Z,4.03
2023-03-30T14:39:57.471Z,3.50
2023-03-30T14:42:27.596Z,1.97
2023-03-30T14:44:57.309Z,2.37
2023-03-30T14:47:27.332Z,7.10
2023-03-30T14:49:58.185Z,3.13
2023-03-30T14:52:38.715Z,4.70
2023-03-30T14:55:11.485Z,2.07
2023-03-30T14:57:41.847Z,5.33
2023-03-30T15:00:17.845Z,4.10
2023-03-30T15:02:46.677Z,4.73
2023-03-30T15:05:21.512Z,4.13
2023-03-30T15:07:50.551Z,6.17
2023-03-30T15:10:25.033Z,5.00
2023-03-30T15:12:56.057Z,5.23
2023-03-30T15:15:30.374Z,1.93
2023-03-30T15:17:58.332Z,7.00
2023-03-30T15:20:29.277Z,5.70
2023-03-30T15:22:56.794Z,2.60
2023-03-30T15:25:37.029Z,3.17
2023-03-30T15:28:07.390Z,5.20
2023-03-30T15:30:41.205Z,3.83
2023-03-30T15:33:32.320Z,3.67
2023-03-30T15:36:07.928Z,5.30
2023-03-30T15:38:52.869Z,2.73
2023-03-30T15:41:42.796Z,1.73
2023-03-30T15:44:20.868Z,4.83
2023-03-30T15:46:51.300Z,9.73
2023-03-30T15:49:22.565Z,3.70
2023-03-30T15:51:56.773Z,2.20
2023-03-30T15:54:40.121Z,2.40
2023-03-30T15:57:11.237Z,2.40
2023-03-30T15:59:44.793Z,1.87
2023-03-30T16:02:22.745Z,3.83
2023-03-30T16:04:51.701Z,1.37
2023-03-30T16:07:24.943Z,3.63
2023-03-30T16:09:52.726Z,1.27
2023-03-30T16:12:25.248Z,2.73
2023-03-30T16:14:53.709Z,7.53
2023-03-30T16:17:21.261Z,5.80
2023-03-30T16:19:48.542Z,2.93
2023-03-30T16:22:16.615Z,1.80
2023-03-30T16:24:44.151Z,3.60
2023-03-30T16:27:12.522Z,2.60
2023-03-30T16:29:39.626Z,1.53
2023-03-30T16:32:06.918Z,4.07
2023-03-30T16:34:34.186Z,1.87
2023-03-30T16:37:02.048Z,3.53
2023-03-30T16:39:30.590Z,3.13
2023-03-30T16:41:57.820Z,0.90
2023-03-30T16:44:25.508Z,7.20
2023-03-30T16:46:53.116Z,1.83
2023-03-30T16:49:24.510Z,1.83
2023-03-30T16:51:54.554Z,2.10
2023-03-30T16:54:31.059Z,2.50
2023-03-30T16:57:01.066Z,1.73
2023-03-30T16:59:32.671Z,1.10
2023-03-30T17:02:00.492Z,2.27
2023-03-30T17:04:27.954Z,2.03
2023-03-30T17:06:56.285Z,1.33
2023-03-30T17:09:23.492Z,6.00
2023-03-30T17:11:51.050Z,0.90
2023-03-30T17:14:18.399Z,1.60
2023-03-30T17:16:45.601Z,1.20
2023-03-30T17:19:14.428Z,1.20
2023-03-30T17:21:43.820Z,1.57
2023-03-30T17:24:12.656Z,3.30
2023-03-30T17:26:40.373Z,1.83
2023-03-30T17:29:07.551Z,4.43
2023-03-30T17:31:34.810Z,3.70
2023-03-30T17:34:01.949Z,2.30
2023-03-30T17:36:29.277Z,1.70
2023-03-30T17:38:56.759Z,1.80
2023-03-30T17:41:24.112Z,1.90
2023-03-30T17:43:51.670Z,4.03
2023-03-30T17:46:20.330Z,2.40
2023-03-30T17:48:48.288Z,1.00
2023-03-30T17:51:15.465Z,1.97
2023-03-30T17:53:42.878Z,2.87
2023-03-30T17:56:13.398Z,0.90
2023-03-30T17:58:40.517Z,1.10
2023-03-30T18:01:12.442Z,1.77
2023-03-30T18:03:40.197Z,0.93
2023-03-30T18:06:08.066Z,6.30
2023-03-30T18:08:36.263Z,1.63
2023-03-30T18:11:05.076Z,2.10
2023-03-30T18:13:32.766Z,1.00
2023-03-30T18:16:01.144Z,2.70
2023-03-30T18:18:31.937Z,1.50
2023-03-30T18:21:05.409Z,1.67
2023-03-30T18:23:34.539Z,2.63
2023-03-30T18:26:08.390Z,1.47
2023-03-30T18:28:40.532Z,1.40
2023-03-30T18:31:10.794Z,0.70
2023-03-30T18:33:39.367Z,1.47
2023-03-30T18:36:13.097Z,1.37
2023-03-30T18:38:40.944Z,2.80
2023-03-30T18:41:12.470Z,0.80
2023-03-30T18:43:39.581Z,1.63
2023-03-30T18:46:07.021Z,2.20
2023-03-30T18:48:34.509Z,2.00
2023-03-30T18:51:01.757Z,1.10
2023-03-30T18:53:29.272Z,1.30
2023-03-30T18:56:00.690Z,1.80
2023-03-30T18:58:33.833Z,1.80
2023-03-30T19:01:01.539Z,2.70
2023-03-30T19:03:30.219Z,1.43
2023-03-30T19:05:57.456Z,1.67
2023-03-30T19:08:26.579Z,1.87
2023-03-30T19:10:56.881Z,1.43
2023-03-30T19:13:26.202Z,1.37
2023-03-30T19:15:53.691Z,1.77
2023-03-30T19:18:21.452Z,2.60
2023-03-30T19:20:51.274Z,3.03
2023-03-30T19:23:23.064Z,2.80
2023-03-30T19:25:50.843Z,0.80
2023-03-30T19:28:19.125Z,6.83
2023-03-30T19:30:46.723Z,2.40
2023-03-30T19:33:16.870Z,2.47
2023-03-30T19:35:46.334Z,1.63
2023-03-30T19:38:14.829Z,1.60
2023-03-30T19:40:42.707Z,2.97
2023-03-30T19:43:10.540Z,1.23
2023-03-30T19:45:38.313Z,1.80
2023-03-30T19:48:05.595Z,1.93
2023-03-30T19:50:32.828Z,1.57
2023-03-30T19:52:59.978Z,3.43
2023-03-30T19:55:27.638Z,2.03
2023-03-30T19:57:54.921Z,2.07
2023-03-30T20:00:22.122Z,2.37
2023-03-30T20:02:52.963Z,2.33
2023-03-30T20:05:22.862Z,1.20
2023-03-30T20:07:50.547Z,1.57
2023-03-30T20:10:25.053Z,1.40
2023-03-30T20:12:53.582Z,1.50
2023-03-30T20:15:23.470Z,1.20
2023-03-30T20:17:58.629Z,3.70
2023-03-30T20:20:26.300Z,2.80
2023-03-30T20:22:56.517Z,3.00
2023-03-30T20:25:24.790Z,2.50
2023-03-30T20:27:52.975Z,1.63
2023-03-30T20:30:21.183Z,1.73
2023-03-30T20:33:00.199Z,3.33
2023-03-30T20:35:37.884Z,1.40
2023-03-30T20:38:06.281Z,3.67
2023-03-30T20:40:34.786Z,1.57
2023-03-30T20:43:10.069Z,3.20
2023-03-30T20:45:46.408Z,4.93
2023-03-30T20:48:27.032Z,1.87
2023-03-30T20:50:55.938Z,5.27
2023-03-30T20:53:23.722Z,1.10
2023-03-30T20:55:51.137Z,2.07
2023-03-30T20:58:18.228Z,1.77
2023-03-30T21:00:47.447Z,2.20
2023-03-30T21:03:15.564Z,1.83
2023-03-30T21:05:42.694Z,2.10
2023-03-30T21:08:09.811Z,4.13
2023-03-30T21:10:40.688Z,1.33
2023-03-30T21:13:07.744Z,2.67
2023-03-30T21:15:35.140Z,3.10
2023-03-30T21:18:02.453Z,3.33
2023-03-30T21:20:31.017Z,1.37
2023-03-30T21:22:58.186Z,1.50
2023-03-30T21:25:25.284Z,2.40
2023-03-30T21:27:52.427Z,4.13
2023-03-30T21:30:19.688Z,2.40
2023-03-30T21:32:46.768Z,3.23
2023-03-30T21:35:13.899Z,4.10
2023-03-30T21:37:41.031Z,5.07
2023-03-30T21:40:08.808Z,4.83
2023-03-30T21:42:35.978Z,7.47
2023-03-30T21:45:03.246Z,2.30
2023-03-30T21:47:30.496Z,3.43
2023-03-30T21:49:57.562Z,6.00
2023-03-30T21:52:24.782Z,2.53
2023-03-30T21:54:52.125Z,1.67
2023-03-30T21:57:19.306Z,1.60
2023-03-30T21:59:46.538Z,1.97
2023-03-30T22:02:13.640Z,3.00
2023-03-30T22:04:44.135Z,2.10
2023-03-30T22:07:11.624Z,1.10
2023-03-30T22:09:38.944Z,4.27
2023-03-30T22:12:06.713Z,3.23
2023-03-30T22:14:34.288Z,5.70
2023-03-30T22:17:01.382Z,7.47
2023-03-30T22:19:31.981Z,2.40
2023-03-30T22:21:59.112Z,2.43
2023-03-30T22:24:26.241Z,5.90
2023-03-30T22:26:53.303Z,2.00
2023-03-30T22:29:20.955Z,2.20
2023-03-30T22:31:48.129Z,7.07
2023-03-30T22:34:15.476Z,4.40
2023-03-30T22:36:43.468Z,2.83
2023-03-30T22:39:10.641Z,2.60
2023-03-30T22:41:38.229Z,0.80
2023-03-30T22:44:05.421Z,2.83
2023-03-30T22:46:32.582Z,1.80
2023-03-30T22:49:00.246Z,1.40
2023-03-30T22:51:27.477Z,4.07
2023-03-30T22:54:00.188Z,3.07
2023-03-30T22:56:29.498Z,1.73
2023-03-30T22:58:57.414Z,4.83
2023-03-30T23:01:24.664Z,3.57
2023-03-30T23:03:53.623Z,3.43
2023-03-30T23:06:21.496Z,3.50
2023-03-30T23:08:49.170Z,7.23
2023-03-30T23:11:16.702Z,3.20
2023-03-30T23:13:43.979Z,2.30
2023-03-30T23:16:11.226Z,5.57
2023-03-30T23:18:39.087Z,4.43
2023-03-30T23:21:08.176Z,3.83
2023-03-30T23:23:39.147Z,3.13
2023-03-30T23:26:10.175Z,9.27
2023-03-30T23:28:40.405Z,2.63
2023-03-30T23:31:17.572Z,4.83
2023-03-30T23:33:45.768Z,6.10
2023-03-30T23:36:13.936Z,3.43
2023-03-30T23:38:41.769Z,1.83
2023-03-30T23:41:09.865Z,2.97
2023-03-30T23:43:37.010Z,2.50
2023-03-30T23:46:04.849Z,3.90
2023-03-30T23:48:32.784Z,1.20
2023-03-30T23:50:59.828Z,3.27
2023-03-30T23:53:27.085Z,3.20
2023-03-30T23:55:54.875Z,7.63
2023-03-30T23:58:22.537Z,3.37
